sensor_id;sensor_type;location;lat;lon;timestamp;temperature;humidity
43671;DHT22;29267;50.906;7.248;2023-11-21T00:01:51;7.60;99.90
43671;DHT22;29267;50.906;7.248;2023-11-21T00:04:17;7.60;99.90
43671;DHT22;29267;50.906;7.248;2023-11-21T00:06:43;7.60;99.90
43671;DHT22;29267;50.906;7.248;2023-11-21T00:09:15;7.60;99.90
43671;DHT22;29267;50.906;7.248;2023-11-21T00:11:41;7.50;99.90
43671;DHT22;29267;50.906;7.248;2023-11-21T00:14:13;7.50;99.90
43671;DHT22;29267;50.906;7.248;2023-11-21T00:16:44;7.40;99.90
43671;DHT22;29267;50.906;7.248;2023-11-21T00:19:10;7.40;99.90
43671;DHT22;29267;50.906;7.248;2023-11-21T00:21:35;7.40;99.90
43671;DHT22;29267;50.906;7.248;2023-11-21T00:24:01;7.40;99.90
43671;DHT22;29267;50.906;7.248;2023-11-21T00:26:27;7.30;99.90
43671;DHT22;29267;50.906;7.248;2023-11-21T00:28:53;7.30;99.90
43671;DHT22;29267;50.906;7.248;2023-11-21T00:31:19;7.30;99.90
43671;DHT22;29267;50.906;7.248;2023-11-21T00:33:45;7.30;99.90
43671;DHT22;29267;50.906;7.248;2023-11-21T00:36:11;7.30;99.90
43671;DHT22;29267;50.906;7.248;2023-11-21T00:38:36;7.30;99.90
43671;DHT22;29267;50.906;7.248;2023-11-21T00:41:06;7.30;99.90
43671;DHT22;29267;50.906;7.248;2023-11-21T00:43:31;7.30;99.90
43671;DHT22;29267;50.906;7.248;2023-11-21T00:45:59;7.40;99.90
43671;DHT22;29267;50.906;7.248;2023-11-21T00:48:25;7.40;99.90
43671;DHT22;29267;50.906;7.248;2023-11-21T00:50:50;7.30;99.90
43671;DHT22;29267;50.906;7.248;2023-11-21T00:53:16;7.40;99.90
43671;DHT22;29267;50.906;7.248;2023-11-21T00:55:42;7.30;99.90
43671;DHT22;29267;50.906;7.248;2023-11-21T00:58:08;7.30;99.90
43671;DHT22;29267;50.906;7.248;2023-11-21T01:00:34;7.30;99.90
43671;DHT22;29267;50.906;7.248;2023-11-21T01:03:00;7.30;99.90
43671;DHT22;29267;50.906;7.248;2023-11-21T01:05:26;7.30;99.90
43671;DHT22;29267;50.906;7.248;2023-11-21T01:07:52;7.40;99.90
43671;DHT22;29267;50.906;7.248;2023-11-21T01:10:18;7.40;99.90
43671;DHT22;29267;50.906;7.248;2023-11-21T01:12:44;7.40;99.90
43671;DHT22;29267;50.906;7.248;2023-11-21T01:15:10;7.30;99.90
43671;DHT22;29267;50.906;7.248;2023-11-21T01:17:37;7.40;99.90
43671;DHT22;29267;50.906;7.248;2023-11-21T01:20:04;7.30;99.90
43671;DHT22;29267;50.906;7.248;2023-11-21T01:22:37;7.30;99.90
43671;DHT22;29267;50.906;7.248;2023-11-21T01:25:04;7.30;99.90
43671;DHT22;29267;50.906;7.248;2023-11-21T01:27:33;7.30;99.90
43671;DHT22;29267;50.906;7.248;2023-11-21T01:29:59;7.40;99.90
43671;DHT22;29267;50.906;7.248;2023-11-21T01:32:25;7.40;99.90
43671;DHT22;29267;50.906;7.248;2023-11-21T01:34:51;7.40;99.90
43671;DHT22;29267;50.906;7.248;2023-11-21T01:37:17;7.40;99.90
43671;DHT22;29267;50.906;7.248;2023-11-21T01:39:46;7.40;99.90
43671;DHT22;29267;50.906;7.248;2023-11-21T01:42:12;7.40;99.90
43671;DHT22;29267;50.906;7.248;2023-11-21T01:44:38;7.40;99.90
43671;DHT22;29267;50.906;7.248;2023-11-21T01:47:06;7.40;99.90
43671;DHT22;29267;50.906;7.248;2023-11-21T01:49:33;7.50;99.90
43671;DHT22;29267;50.906;7.248;2023-11-21T01:51:59;7.40;99.90
43671;DHT22;29267;50.906;7.248;2023-11-21T01:54:34;7.40;99.90
43671;DHT22;29267;50.906;7.248;2023-11-21T01:57:03;7.40;99.90
43671;DHT22;29267;50.906;7.248;2023-11-21T01:59:38;7.50;99.90
43671;DHT22;29267;50.906;7.248;2023-11-21T02:02:08;7.50;99.90
43671;DHT22;29267;50.906;7.248;2023-11-21T02:04:50;7.50;99.90
43671;DHT22;29267;50.906;7.248;2023-11-21T02:07:39;7.50;99.90
43671;DHT22;29267;50.906;7.248;2023-11-21T02:10:07;7.50;99.90
43671;DHT22;29267;50.906;7.248;2023-11-21T02:12:33;7.50;99.90
43671;DHT22;29267;50.906;7.248;2023-11-21T02:15:02;7.50;99.90
43671;DHT22;29267;50.906;7.248;2023-11-21T02:17:30;7.50;99.90
43671;DHT22;29267;50.906;7.248;2023-11-21T02:19:58;7.50;99.90
43671;DHT22;29267;50.906;7.248;2023-11-21T02:22:28;7.50;99.90
43671;DHT22;29267;50.906;7.248;2023-11-21T02:24:56;7.50;99.90
43671;DHT22;29267;50.906;7.248;2023-11-21T02:27:23;7.50;99.90
43671;DHT22;29267;50.906;7.248;2023-11-21T02:29:50;7.50;99.90
43671;DHT22;29267;50.906;7.248;2023-11-21T02:32:15;7.50;99.90
43671;DHT22;29267;50.906;7.248;2023-11-21T02:34:44;7.50;99.90
43671;DHT22;29267;50.906;7.248;2023-11-21T02:37:10;7.50;99.90
43671;DHT22;29267;50.906;7.248;2023-11-21T02:39:36;7.50;99.90
43671;DHT22;29267;50.906;7.248;2023-11-21T02:42:01;7.40;99.90
43671;DHT22;29267;50.906;7.248;2023-11-21T02:44:27;7.40;99.90
43671;DHT22;29267;50.906;7.248;2023-11-21T02:46:53;7.40;99.90
43671;DHT22;29267;50.906;7.248;2023-11-21T02:49:19;7.30;99.90
43671;DHT22;29267;50.906;7.248;2023-11-21T02:51:45;7.30;99.90
43671;DHT22;29267;50.906;7.248;2023-11-21T02:54:11;7.30;99.90
43671;DHT22;29267;50.906;7.248;2023-11-21T02:56:37;7.20;99.90
43671;DHT22;29267;50.906;7.248;2023-11-21T02:59:03;7.20;99.90
43671;DHT22;29267;50.906;7.248;2023-11-21T03:01:29;7.20;99.90
43671;DHT22;29267;50.906;7.248;2023-11-21T03:03:55;7.20;99.90
43671;DHT22;29267;50.906;7.248;2023-11-21T03:06:21;7.20;99.90
43671;DHT22;29267;50.906;7.248;2023-11-21T03:08:47;7.20;99.90
43671;DHT22;29267;50.906;7.248;2023-11-21T03:11:13;7.20;99.90
43671;DHT22;29267;50.906;7.248;2023-11-21T03:13:40;7.20;99.90
43671;DHT22;29267;50.906;7.248;2023-11-21T03:16:10;7.20;99.90
43671;DHT22;29267;50.906;7.248;2023-11-21T03:18:36;7.20;99.90
43671;DHT22;29267;50.906;7.248;2023-11-21T03:21:03;7.20;99.90
43671;DHT22;29267;50.906;7.248;2023-11-21T03:23:29;7.20;99.90
43671;DHT22;29267;50.906;7.248;2023-11-21T03:25:55;7.20;99.90
43671;DHT22;29267;50.906;7.248;2023-11-21T03:28:20;7.20;99.90
43671;DHT22;29267;50.906;7.248;2023-11-21T03:30:46;7.20;99.90
43671;DHT22;29267;50.906;7.248;2023-11-21T03:33:12;7.20;99.90
43671;DHT22;29267;50.906;7.248;2023-11-21T03:35:38;7.20;99.90
43671;DHT22;29267;50.906;7.248;2023-11-21T03:38:04;7.20;99.90
43671;DHT22;29267;50.906;7.248;2023-11-21T03:40:30;7.20;99.90
43671;DHT22;29267;50.906;7.248;2023-11-21T03:42:57;7.20;99.90
43671;DHT22;29267;50.906;7.248;2023-11-21T03:45:23;7.20;99.90
43671;DHT22;29267;50.906;7.248;2023-11-21T03:47:49;7.20;99.90
43671;DHT22;29267;50.906;7.248;2023-11-21T03:50:15;7.20;99.90
43671;DHT22;29267;50.906;7.248;2023-11-21T03:52:41;7.20;99.90
43671;DHT22;29267;50.906;7.248;2023-11-21T03:55:07;7.20;99.90
43671;DHT22;29267;50.906;7.248;2023-11-21T03:57:33;7.20;99.90
43671;DHT22;29267;50.906;7.248;2023-11-21T03:59:58;7.30;99.90
43671;DHT22;29267;50.906;7.248;2023-11-21T04:02:24;7.30;99.90
43671;DHT22;29267;50.906;7.248;2023-11-21T04:04:51;7.30;99.90
43671;DHT22;29267;50.906;7.248;2023-11-21T04:07:17;7.30;99.90
43671;DHT22;29267;50.906;7.248;2023-11-21T04:09:43;7.30;99.90
43671;DHT22;29267;50.906;7.248;2023-11-21T04:12:09;7.30;99.90
43671;DHT22;29267;50.906;7.248;2023-11-21T04:14:35;7.30;99.90
43671;DHT22;29267;50.906;7.248;2023-11-21T04:17:01;7.30;99.90
43671;DHT22;29267;50.906;7.248;2023-11-21T04:19:27;7.30;99.90
43671;DHT22;29267;50.906;7.248;2023-11-21T04:21:52;7.30;99.90
43671;DHT22;29267;50.906;7.248;2023-11-21T04:24:18;7.30;99.90
43671;DHT22;29267;50.906;7.248;2023-11-21T04:26:44;7.30;99.90
43671;DHT22;29267;50.906;7.248;2023-11-21T04:29:10;7.30;99.90
43671;DHT22;29267;50.906;7.248;2023-11-21T04:31:36;7.30;99.90
43671;DHT22;29267;50.906;7.248;2023-11-21T04:34:02;7.30;99.90
43671;DHT22;29267;50.906;7.248;2023-11-21T04:36:29;7.30;99.90
43671;DHT22;29267;50.906;7.248;2023-11-21T04:38:56;7.30;99.90
43671;DHT22;29267;50.906;7.248;2023-11-21T04:41:22;7.30;99.90
43671;DHT22;29267;50.906;7.248;2023-11-21T04:43:48;7.30;99.90
43671;DHT22;29267;50.906;7.248;2023-11-21T04:46:17;7.30;99.90
43671;DHT22;29267;50.906;7.248;2023-11-21T04:48:43;7.30;99.90
43671;DHT22;29267;50.906;7.248;2023-11-21T04:51:09;7.30;99.90
43671;DHT22;29267;50.906;7.248;2023-11-21T04:53:37;7.30;99.90
43671;DHT22;29267;50.906;7.248;2023-11-21T04:56:03;7.30;99.90
43671;DHT22;29267;50.906;7.248;2023-11-21T04:58:29;7.20;99.90
43671;DHT22;29267;50.906;7.248;2023-11-21T05:00:55;7.20;99.90
43671;DHT22;29267;50.906;7.248;2023-11-21T05:03:22;7.20;99.90
43671;DHT22;29267;50.906;7.248;2023-11-21T05:05:49;7.20;99.90
43671;DHT22;29267;50.906;7.248;2023-11-21T05:08:16;7.20;99.90
43671;DHT22;29267;50.906;7.248;2023-11-21T05:10:42;7.10;99.90
43671;DHT22;29267;50.906;7.248;2023-11-21T05:13:08;7.10;99.90
43671;DHT22;29267;50.906;7.248;2023-11-21T05:15:36;7.10;99.90
43671;DHT22;29267;50.906;7.248;2023-11-21T05:18:02;7.10;99.90
43671;DHT22;29267;50.906;7.248;2023-11-21T05:20:28;7.10;99.90
43671;DHT22;29267;50.906;7.248;2023-11-21T05:22:54;7.10;99.90
43671;DHT22;29267;50.906;7.248;2023-11-21T05:25:20;7.10;99.90
43671;DHT22;29267;50.906;7.248;2023-11-21T05:27:47;7.10;99.90
43671;DHT22;29267;50.906;7.248;2023-11-21T05:30:13;7.00;99.90
43671;DHT22;29267;50.906;7.248;2023-11-21T05:32:40;7.10;99.90
43671;DHT22;29267;50.906;7.248;2023-11-21T05:35:08;7.00;99.90
43671;DHT22;29267;50.906;7.248;2023-11-21T05:37:38;6.90;99.90
43671;DHT22;29267;50.906;7.248;2023-11-21T05:40:08;6.90;99.90
43671;DHT22;29267;50.906;7.248;2023-11-21T05:42:35;6.90;99.90
43671;DHT22;29267;50.906;7.248;2023-11-21T05:45:02;6.90;99.90
43671;DHT22;29267;50.906;7.248;2023-11-21T05:50:04;6.90;99.90
43671;DHT22;29267;50.906;7.248;2023-11-21T05:52:31;6.90;99.90
43671;DHT22;29267;50.906;7.248;2023-11-21T05:55:00;6.90;99.90
43671;DHT22;29267;50.906;7.248;2023-11-21T05:57:26;6.90;99.90
43671;DHT22;29267;50.906;7.248;2023-11-21T05:59:52;6.90;99.90
43671;DHT22;29267;50.906;7.248;2023-11-21T06:02:18;6.90;99.90
43671;DHT22;29267;50.906;7.248;2023-11-21T06:04:44;6.90;99.90
43671;DHT22;29267;50.906;7.248;2023-11-21T06:07:10;6.90;99.90
43671;DHT22;29267;50.906;7.248;2023-11-21T06:09:37;7.00;99.90
43671;DHT22;29267;50.906;7.248;2023-11-21T06:12:03;6.90;99.90
43671;DHT22;29267;50.906;7.248;2023-11-21T06:14:29;7.00;99.90
43671;DHT22;29267;50.906;7.248;2023-11-21T06:16:55;6.90;99.90
43671;DHT22;29267;50.906;7.248;2023-11-21T06:19:22;6.90;99.90
43671;DHT22;29267;50.906;7.248;2023-11-21T06:21:47;7.00;99.90
43671;DHT22;29267;50.906;7.248;2023-11-21T06:24:13;7.00;99.90
43671;DHT22;29267;50.906;7.248;2023-11-21T06:26:40;7.00;99.90
43671;DHT22;29267;50.906;7.248;2023-11-21T06:29:06;7.00;99.90
43671;DHT22;29267;50.906;7.248;2023-11-21T06:31:32;7.00;99.90
43671;DHT22;29267;50.906;7.248;2023-11-21T06:33:58;7.00;99.90
43671;DHT22;29267;50.906;7.248;2023-11-21T06:36:25;7.10;99.90
43671;DHT22;29267;50.906;7.248;2023-11-21T06:38:52;7.10;99.90
43671;DHT22;29267;50.906;7.248;2023-11-21T06:41:18;7.10;99.90
43671;DHT22;29267;50.906;7.248;2023-11-21T06:43:43;7.20;99.90
43671;DHT22;29267;50.906;7.248;2023-11-21T06:46:12;7.20;99.90
43671;DHT22;29267;50.906;7.248;2023-11-21T06:48:42;7.20;99.90
43671;DHT22;29267;50.906;7.248;2023-11-21T06:51:08;7.20;99.90
43671;DHT22;29267;50.906;7.248;2023-11-21T06:53:34;7.20;99.90
43671;DHT22;29267;50.906;7.248;2023-11-21T06:56:01;7.20;99.90
43671;DHT22;29267;50.906;7.248;2023-11-21T06:58:27;7.20;99.90
43671;DHT22;29267;50.906;7.248;2023-11-21T07:00:52;7.20;99.90
43671;DHT22;29267;50.906;7.248;2023-11-21T07:03:18;7.20;99.90
43671;DHT22;29267;50.906;7.248;2023-11-21T07:05:45;7.30;99.90
43671;DHT22;29267;50.906;7.248;2023-11-21T07:08:11;7.30;99.90
43671;DHT22;29267;50.906;7.248;2023-11-21T07:10:38;7.30;99.90
43671;DHT22;29267;50.906;7.248;2023-11-21T07:13:04;7.30;99.90
43671;DHT22;29267;50.906;7.248;2023-11-21T07:15:30;7.30;99.90
43671;DHT22;29267;50.906;7.248;2023-11-21T07:17:56;7.30;99.90
43671;DHT22;29267;50.906;7.248;2023-11-21T07:20:24;7.40;99.90
43671;DHT22;29267;50.906;7.248;2023-11-21T07:22:49;7.40;99.90
43671;DHT22;29267;50.906;7.248;2023-11-21T07:25:15;7.40;99.90
43671;DHT22;29267;50.906;7.248;2023-11-21T07:27:41;7.40;99.90
43671;DHT22;29267;50.906;7.248;2023-11-21T07:30:08;7.40;99.90
43671;DHT22;29267;50.906;7.248;2023-11-21T07:32:35;7.50;99.90
43671;DHT22;29267;50.906;7.248;2023-11-21T07:35:01;7.40;99.90
43671;DHT22;29267;50.906;7.248;2023-11-21T07:37:29;7.50;99.90
43671;DHT22;29267;50.906;7.248;2023-11-21T07:39:55;7.40;99.90
43671;DHT22;29267;50.906;7.248;2023-11-21T07:42:23;7.50;99.90
43671;DHT22;29267;50.906;7.248;2023-11-21T07:44:53;7.50;99.90
43671;DHT22;29267;50.906;7.248;2023-11-21T07:47:18;7.50;99.90
43671;DHT22;29267;50.906;7.248;2023-11-21T07:49:44;7.50;99.90
43671;DHT22;29267;50.906;7.248;2023-11-21T07:52:10;7.60;99.90
43671;DHT22;29267;50.906;7.248;2023-11-21T07:54:36;7.60;99.90
43671;DHT22;29267;50.906;7.248;2023-11-21T07:57:02;7.70;99.90
43671;DHT22;29267;50.906;7.248;2023-11-21T07:59:29;7.70;99.90
43671;DHT22;29267;50.906;7.248;2023-11-21T08:01:56;7.60;99.90
43671;DHT22;29267;50.906;7.248;2023-11-21T08:04:21;7.60;99.90
43671;DHT22;29267;50.906;7.248;2023-11-21T08:06:47;7.70;99.90
43671;DHT22;29267;50.906;7.248;2023-11-21T08:09:14;7.80;99.90
43671;DHT22;29267;50.906;7.248;2023-11-21T08:11:41;7.80;99.90
43671;DHT22;29267;50.906;7.248;2023-11-21T08:14:07;7.90;99.90
43671;DHT22;29267;50.906;7.248;2023-11-21T08:16:33;7.80;99.90
43671;DHT22;29267;50.906;7.248;2023-11-21T08:18:59;7.90;99.90
43671;DHT22;29267;50.906;7.248;2023-11-21T08:21:25;7.90;99.90
43671;DHT22;29267;50.906;7.248;2023-11-21T08:23:54;8.00;99.90
43671;DHT22;29267;50.906;7.248;2023-11-21T08:26:21;8.10;99.90
43671;DHT22;29267;50.906;7.248;2023-11-21T08:28:47;8.20;99.90
43671;DHT22;29267;50.906;7.248;2023-11-21T08:31:13;8.30;99.90
43671;DHT22;29267;50.906;7.248;2023-11-21T08:33:40;8.50;99.90
43671;DHT22;29267;50.906;7.248;2023-11-21T08:36:09;8.60;99.90
43671;DHT22;29267;50.906;7.248;2023-11-21T08:38:36;8.90;99.90
43671;DHT22;29267;50.906;7.248;2023-11-21T08:41:07;9.00;99.90
43671;DHT22;29267;50.906;7.248;2023-11-21T08:43:36;9.10;99.90
43671;DHT22;29267;50.906;7.248;2023-11-21T08:46:08;9.20;99.90
43671;DHT22;29267;50.906;7.248;2023-11-21T08:48:36;9.30;99.90
43671;DHT22;29267;50.906;7.248;2023-11-21T08:51:02;9.50;99.90
43671;DHT22;29267;50.906;7.248;2023-11-21T08:53:29;9.40;99.90
43671;DHT22;29267;50.906;7.248;2023-11-21T08:55:59;9.30;99.90
43671;DHT22;29267;50.906;7.248;2023-11-21T08:58:25;9.40;99.90
43671;DHT22;29267;50.906;7.248;2023-11-21T09:00:51;9.50;99.90
43671;DHT22;29267;50.906;7.248;2023-11-21T09:03:20;9.40;99.90
43671;DHT22;29267;50.906;7.248;2023-11-21T09:05:48;9.40;99.90
43671;DHT22;29267;50.906;7.248;2023-11-21T09:08:14;9.50;99.90
43671;DHT22;29267;50.906;7.248;2023-11-21T09:10:40;9.40;99.90
43671;DHT22;29267;50.906;7.248;2023-11-21T09:13:07;9.50;99.90
43671;DHT22;29267;50.906;7.248;2023-11-21T09:15:34;9.60;99.90
43671;DHT22;29267;50.906;7.248;2023-11-21T09:18:01;9.60;99.90
43671;DHT22;29267;50.906;7.248;2023-11-21T09:20:27;9.60;99.90
43671;DHT22;29267;50.906;7.248;2023-11-21T09:22:53;9.60;99.90
43671;DHT22;29267;50.906;7.248;2023-11-21T09:25:21;9.70;99.90
43671;DHT22;29267;50.906;7.248;2023-11-21T09:27:46;9.70;99.90
43671;DHT22;29267;50.906;7.248;2023-11-21T09:30:13;9.70;99.90
43671;DHT22;29267;50.906;7.248;2023-11-21T09:32:40;9.80;99.90
43671;DHT22;29267;50.906;7.248;2023-11-21T09:35:06;9.80;99.90
43671;DHT22;29267;50.906;7.248;2023-11-21T09:37:34;9.80;99.90
43671;DHT22;29267;50.906;7.248;2023-11-21T09:40:04;9.90;99.90
43671;DHT22;29267;50.906;7.248;2023-11-21T09:42:37;9.90;99.90
43671;DHT22;29267;50.906;7.248;2023-11-21T09:47:47;10.00;99.90
43671;DHT22;29267;50.906;7.248;2023-11-21T09:50:17;10.00;99.90
43671;DHT22;29267;50.906;7.248;2023-11-21T09:53:08;9.90;99.90
43671;DHT22;29267;50.906;7.248;2023-11-21T09:55:42;10.00;99.90
43671;DHT22;29267;50.906;7.248;2023-11-21T09:58:12;9.90;99.90
43671;DHT22;29267;50.906;7.248;2023-11-21T10:00:44;9.90;99.90
43671;DHT22;29267;50.906;7.248;2023-11-21T10:03:11;10.00;99.90
43671;DHT22;29267;50.906;7.248;2023-11-21T10:05:38;10.00;99.90
43671;DHT22;29267;50.906;7.248;2023-11-21T10:08:07;9.90;99.90
43671;DHT22;29267;50.906;7.248;2023-11-21T10:10:33;10.00;99.90
43671;DHT22;29267;50.906;7.248;2023-11-21T10:13:04;10.10;99.90
43671;DHT22;29267;50.906;7.248;2023-11-21T10:15:36;10.20;99.90
43671;DHT22;29267;50.906;7.248;2023-11-21T10:18:03;10.20;99.90
43671;DHT22;29267;50.906;7.248;2023-11-21T10:20:31;10.20;99.90
43671;DHT22;29267;50.906;7.248;2023-11-21T10:22:59;10.20;99.90
43671;DHT22;29267;50.906;7.248;2023-11-21T10:25:27;10.20;99.90
43671;DHT22;29267;50.906;7.248;2023-11-21T10:27:58;10.30;99.90
43671;DHT22;29267;50.906;7.248;2023-11-21T10:30:35;10.30;99.90
43671;DHT22;29267;50.906;7.248;2023-11-21T10:33:03;10.30;99.90
43671;DHT22;29267;50.906;7.248;2023-11-21T10:38:07;10.50;99.90
43671;DHT22;29267;50.906;7.248;2023-11-21T10:40:38;10.50;99.90
43671;DHT22;29267;50.906;7.248;2023-11-21T10:43:10;10.50;99.90
43671;DHT22;29267;50.906;7.248;2023-11-21T10:45:40;10.50;99.90
43671;DHT22;29267;50.906;7.248;2023-11-21T10:48:12;10.50;99.90
43671;DHT22;29267;50.906;7.248;2023-11-21T10:50:43;10.60;99.90
43671;DHT22;29267;50.906;7.248;2023-11-21T10:53:11;10.70;99.90
43671;DHT22;29267;50.906;7.248;2023-11-21T10:55:38;10.70;99.90
43671;DHT22;29267;50.906;7.248;2023-11-21T10:58:05;10.70;99.90
43671;DHT22;29267;50.906;7.248;2023-11-21T11:00:32;10.80;99.90
43671;DHT22;29267;50.906;7.248;2023-11-21T11:03:03;10.70;99.90
43671;DHT22;29267;50.906;7.248;2023-11-21T11:05:30;10.70;99.90
43671;DHT22;29267;50.906;7.248;2023-11-21T11:08:04;10.70;99.90
43671;DHT22;29267;50.906;7.248;2023-11-21T11:10:30;10.70;99.90
43671;DHT22;29267;50.906;7.248;2023-11-21T11:12:59;10.60;99.90
43671;DHT22;29267;50.906;7.248;2023-11-21T11:15:26;10.50;99.90
43671;DHT22;29267;50.906;7.248;2023-11-21T11:17:53;10.40;99.90
43671;DHT22;29267;50.906;7.248;2023-11-21T11:20:34;10.40;99.90
43671;DHT22;29267;50.906;7.248;2023-11-21T11:28:35;10.30;99.90
43671;DHT22;29267;50.906;7.248;2023-11-21T11:34:26;10.20;99.90
43671;DHT22;29267;50.906;7.248;2023-11-21T11:37:02;10.20;99.90
43671;DHT22;29267;50.906;7.248;2023-11-21T11:39:37;10.30;99.90
43671;DHT22;29267;50.906;7.248;2023-11-21T11:42:13;10.10;99.90
43671;DHT22;29267;50.906;7.248;2023-11-21T11:47:28;10.10;99.90
43671;DHT22;29267;50.906;7.248;2023-11-21T11:50:12;10.20;99.90
43671;DHT22;29267;50.906;7.248;2023-11-21T11:52:50;10.30;99.90
43671;DHT22;29267;50.906;7.248;2023-11-21T11:55:19;10.40;99.90
43671;DHT22;29267;50.906;7.248;2023-11-21T12:02:58;10.50;99.90
43671;DHT22;29267;50.906;7.248;2023-11-21T12:05:29;10.60;99.90
43671;DHT22;29267;50.906;7.248;2023-11-21T12:08:00;10.60;99.90
43671;DHT22;29267;50.906;7.248;2023-11-21T12:13:36;10.70;99.90
43671;DHT22;29267;50.906;7.248;2023-11-21T12:16:10;10.70;99.90
43671;DHT22;29267;50.906;7.248;2023-11-21T12:18:37;10.80;99.90
43671;DHT22;29267;50.906;7.248;2023-11-21T12:21:13;10.80;99.90
43671;DHT22;29267;50.906;7.248;2023-11-21T12:23:50;10.90;99.90
43671;DHT22;29267;50.906;7.248;2023-11-21T12:26:25;10.90;99.90
43671;DHT22;29267;50.906;7.248;2023-11-21T12:28:54;11.10;99.90
43671;DHT22;29267;50.906;7.248;2023-11-21T12:31:24;11.20;99.90
43671;DHT22;29267;50.906;7.248;2023-11-21T12:43:47;11.00;99.90
43671;DHT22;29267;50.906;7.248;2023-11-21T12:46:29;11.00;99.90
43671;DHT22;29267;50.906;7.248;2023-11-21T12:48:57;11.00;99.90
43671;DHT22;29267;50.906;7.248;2023-11-21T12:54:36;10.90;99.90
43671;DHT22;29267;50.906;7.248;2023-11-21T13:00:45;10.80;99.90
43671;DHT22;29267;50.906;7.248;2023-11-21T13:03:16;10.60;99.90
43671;DHT22;29267;50.906;7.248;2023-11-21T13:05:51;10.60;99.90
43671;DHT22;29267;50.906;7.248;2023-11-21T13:08:21;10.40;99.90
43671;DHT22;29267;50.906;7.248;2023-11-21T13:10:55;10.40;99.90
43671;DHT22;29267;50.906;7.248;2023-11-21T13:13:28;10.50;99.90
43671;DHT22;29267;50.906;7.248;2023-11-21T13:16:00;10.60;99.90
43671;DHT22;29267;50.906;7.248;2023-11-21T13:18:40;10.70;99.90
43671;DHT22;29267;50.906;7.248;2023-11-21T13:21:08;10.60;99.90
43671;DHT22;29267;50.906;7.248;2023-11-21T13:23:45;10.50;99.90
43671;DHT22;29267;50.906;7.248;2023-11-21T13:26:20;10.40;99.90
43671;DHT22;29267;50.906;7.248;2023-11-21T13:28:47;10.40;99.90
43671;DHT22;29267;50.906;7.248;2023-11-21T13:31:13;10.40;99.90
43671;DHT22;29267;50.906;7.248;2023-11-21T13:33:54;10.50;99.90
43671;DHT22;29267;50.906;7.248;2023-11-21T13:36:29;10.50;99.90
43671;DHT22;29267;50.906;7.248;2023-11-21T13:38:59;10.50;99.90
43671;DHT22;29267;50.906;7.248;2023-11-21T13:41:30;10.50;99.90
43671;DHT22;29267;50.906;7.248;2023-11-21T13:43:56;10.50;99.90
43671;DHT22;29267;50.906;7.248;2023-11-21T13:46:41;10.50;99.90
43671;DHT22;29267;50.906;7.248;2023-11-21T13:49:07;10.50;99.90
43671;DHT22;29267;50.906;7.248;2023-11-21T13:51:36;10.50;99.90
43671;DHT22;29267;50.906;7.248;2023-11-21T13:54:10;10.50;99.90
43671;DHT22;29267;50.906;7.248;2023-11-21T13:56:36;10.50;99.90
43671;DHT22;29267;50.906;7.248;2023-11-21T13:59:03;10.40;99.90
43671;DHT22;29267;50.906;7.248;2023-11-21T14:01:50;10.50;99.90
43671;DHT22;29267;50.906;7.248;2023-11-21T14:04:21;10.40;99.90
43671;DHT22;29267;50.906;7.248;2023-11-21T14:07:07;10.30;99.90
43671;DHT22;29267;50.906;7.248;2023-11-21T14:09:58;10.20;99.90
43671;DHT22;29267;50.906;7.248;2023-11-21T14:12:24;10.20;99.90
43671;DHT22;29267;50.906;7.248;2023-11-21T14:14:50;10.20;99.90
43671;DHT22;29267;50.906;7.248;2023-11-21T14:17:15;10.20;99.90
43671;DHT22;29267;50.906;7.248;2023-11-21T14:19:42;10.20;99.90
43671;DHT22;29267;50.906;7.248;2023-11-21T14:22:12;10.20;99.90
43671;DHT22;29267;50.906;7.248;2023-11-21T14:24:38;10.10;99.90
43671;DHT22;29267;50.906;7.248;2023-11-21T14:27:09;10.10;99.90
43671;DHT22;29267;50.906;7.248;2023-11-21T14:29:35;10.00;99.90
43671;DHT22;29267;50.906;7.248;2023-11-21T14:32:05;10.00;99.90
43671;DHT22;29267;50.906;7.248;2023-11-21T14:34:31;9.90;99.90
43671;DHT22;29267;50.906;7.248;2023-11-21T14:36:57;9.90;99.90
43671;DHT22;29267;50.906;7.248;2023-11-21T14:39:22;9.80;99.90
43671;DHT22;29267;50.906;7.248;2023-11-21T14:41:54;9.80;99.90
43671;DHT22;29267;50.906;7.248;2023-11-21T14:44:21;9.80;99.90
43671;DHT22;29267;50.906;7.248;2023-11-21T14:46:53;9.80;99.90
43671;DHT22;29267;50.906;7.248;2023-11-21T14:49:20;9.70;99.90
43671;DHT22;29267;50.906;7.248;2023-11-21T14:51:49;9.70;99.90
43671;DHT22;29267;50.906;7.248;2023-11-21T14:54:21;9.70;99.90
43671;DHT22;29267;50.906;7.248;2023-11-21T14:57:04;9.60;99.90
43671;DHT22;29267;50.906;7.248;2023-11-21T14:59:35;9.60;99.90
43671;DHT22;29267;50.906;7.248;2023-11-21T15:02:01;9.50;99.90
43671;DHT22;29267;50.906;7.248;2023-11-21T15:04:43;9.60;99.90
43671;DHT22;29267;50.906;7.248;2023-11-21T15:07:09;9.50;99.90
43671;DHT22;29267;50.906;7.248;2023-11-21T15:09:42;9.50;99.90
43671;DHT22;29267;50.906;7.248;2023-11-21T15:12:10;9.50;99.90
43671;DHT22;29267;50.906;7.248;2023-11-21T15:14:47;9.50;99.90
43671;DHT22;29267;50.906;7.248;2023-11-21T15:17:16;9.50;99.90
43671;DHT22;29267;50.906;7.248;2023-11-21T15:20:03;9.40;99.90
43671;DHT22;29267;50.906;7.248;2023-11-21T15:22:32;9.40;99.90
43671;DHT22;29267;50.906;7.248;2023-11-21T15:24:58;9.40;99.90
43671;DHT22;29267;50.906;7.248;2023-11-21T15:27:24;9.40;99.90
43671;DHT22;29267;50.906;7.248;2023-11-21T15:29:52;9.30;99.90
43671;DHT22;29267;50.906;7.248;2023-11-21T15:32:19;9.40;99.90
43671;DHT22;29267;50.906;7.248;2023-11-21T15:34:44;9.30;99.90
43671;DHT22;29267;50.906;7.248;2023-11-21T15:37:12;9.30;99.90
43671;DHT22;29267;50.906;7.248;2023-11-21T15:39:38;9.40;99.90
43671;DHT22;29267;50.906;7.248;2023-11-21T15:42:05;9.30;99.90
43671;DHT22;29267;50.906;7.248;2023-11-21T15:44:33;9.30;99.90
43671;DHT22;29267;50.906;7.248;2023-11-21T15:46:59;9.30;99.90
43671;DHT22;29267;50.906;7.248;2023-11-21T15:49:25;9.30;99.90
43671;DHT22;29267;50.906;7.248;2023-11-21T15:51:53;9.30;99.90
43671;DHT22;29267;50.906;7.248;2023-11-21T15:54:20;9.30;99.90
43671;DHT22;29267;50.906;7.248;2023-11-21T15:56:56;9.30;99.90
43671;DHT22;29267;50.906;7.248;2023-11-21T15:59:26;9.30;99.90
43671;DHT22;29267;50.906;7.248;2023-11-21T16:02:00;9.30;99.90
43671;DHT22;29267;50.906;7.248;2023-11-21T16:04:26;9.30;99.90
43671;DHT22;29267;50.906;7.248;2023-11-21T16:06:54;9.30;99.90
43671;DHT22;29267;50.906;7.248;2023-11-21T16:09:20;9.40;99.90
43671;DHT22;29267;50.906;7.248;2023-11-21T16:11:49;9.30;99.90
43671;DHT22;29267;50.906;7.248;2023-11-21T16:14:19;9.40;99.90
43671;DHT22;29267;50.906;7.248;2023-11-21T16:16:46;9.40;99.90
43671;DHT22;29267;50.906;7.248;2023-11-21T16:19:11;9.40;99.90
43671;DHT22;29267;50.906;7.248;2023-11-21T16:21:37;9.40;99.90
43671;DHT22;29267;50.906;7.248;2023-11-21T16:24:03;9.30;99.90
43671;DHT22;29267;50.906;7.248;2023-11-21T16:26:29;9.30;99.90
43671;DHT22;29267;50.906;7.248;2023-11-21T16:28:56;9.30;99.90
43671;DHT22;29267;50.906;7.248;2023-11-21T16:31:23;9.30;99.90
43671;DHT22;29267;50.906;7.248;2023-11-21T16:33:49;9.30;99.90